createdAt,value
2022-08-01T00:00:54.094Z,22.72
2022-08-01T00:01:54.166Z,22.73
2022-08-01T00:02:54.135Z,22.73
2022-08-01T00:03:54.058Z,22.73
2022-08-01T00:04:54.066Z,22.73
2022-08-01T00:05:54.038Z,22.75
2022-08-01T00:06:54.028Z,22.73
2022-08-01T00:07:54.014Z,22.73
2022-08-01T00:08:54.006Z,22.73
2022-08-01T00:09:54.010Z,22.72
2022-08-01T00:10:53.999Z,22.73
2022-08-01T00:11:59.500Z,22.75
2022-08-01T00:12:54.961Z,22.73
2022-08-01T00:13:53.946Z,22.73
2022-08-01T00:14:53.941Z,22.72
2022-08-01T00:15:54.515Z,22.73
2022-08-01T00:16:53.918Z,22.73
2022-08-01T00:17:53.904Z,22.73
2022-08-01T00:18:53.898Z,22.75
2022-08-01T00:19:53.882Z,22.73
2022-08-01T00:20:53.892Z,22.73
2022-08-01T00:21:53.878Z,22.73
2022-08-01T00:22:53.850Z,22.73
2022-08-01T00:23:53.841Z,22.73
2022-08-01T00:24:53.830Z,22.72
2022-08-01T00:25:53.817Z,22.72
2022-08-01T00:26:53.824Z,22.73
2022-08-01T00:27:53.795Z,22.73
2022-08-01T00:28:53.784Z,22.73
2022-08-01T00:30:12.033Z,22.73
2022-08-01T00:30:54.763Z,22.72
2022-08-01T00:31:53.766Z,22.72
2022-08-01T00:32:53.743Z,22.73
2022-08-01T00:33:53.729Z,22.73
2022-08-01T00:34:53.719Z,22.72
2022-08-01T00:35:53.707Z,22.75
2022-08-01T00:36:53.711Z,22.73
2022-08-01T00:37:53.688Z,22.73
2022-08-01T00:38:53.679Z,22.72
2022-08-01T00:39:53.665Z,22.73
2022-08-01T00:40:53.657Z,22.73
2022-08-01T00:41:59.747Z,22.72
2022-08-01T00:42:54.646Z,22.75
2022-08-01T00:43:53.620Z,22.72
2022-08-01T00:44:53.634Z,22.73
2022-08-01T00:45:53.600Z,22.73
2022-08-01T00:46:53.590Z,22.72
2022-08-01T00:47:55.121Z,22.73
2022-08-01T00:48:53.596Z,22.73
2022-08-01T00:49:53.556Z,22.72
2022-08-01T00:50:53.544Z,22.73
2022-08-01T00:51:53.536Z,22.72
2022-08-01T00:52:53.540Z,22.73
2022-08-01T00:53:53.510Z,22.72
2022-08-01T00:54:53.504Z,22.73
2022-08-01T00:55:53.490Z,22.73
2022-08-01T00:56:53.482Z,22.73
2022-08-01T00:58:02.401Z,22.72
2022-08-01T00:58:54.457Z,22.73
2022-08-01T00:59:53.446Z,22.73
2022-08-01T01:00:54.713Z,22.72
2022-08-01T01:01:53.722Z,22.73
2022-08-01T01:02:53.444Z,22.73
2022-08-01T01:03:58.956Z,22.73
2022-08-01T01:04:54.391Z,22.72
2022-08-01T01:05:53.379Z,22.73
2022-08-01T01:06:53.370Z,22.72
2022-08-01T01:07:53.357Z,22.73
2022-08-01T01:08:53.366Z,22.72
2022-08-01T01:09:53.339Z,22.73
2022-08-01T01:10:53.325Z,22.72
2022-08-01T01:11:53.319Z,22.73
2022-08-01T01:12:53.304Z,22.73
2022-08-01T01:13:53.311Z,22.73
2022-08-01T01:14:53.282Z,22.73
2022-08-01T01:15:53.274Z,22.73
2022-08-01T01:16:53.263Z,22.73
2022-08-01T01:17:53.250Z,22.72
2022-08-01T01:18:53.256Z,22.73
2022-08-01T01:19:53.245Z,22.73
2022-08-01T01:20:53.216Z,22.72
2022-08-01T01:21:53.208Z,22.72
2022-08-01T01:22:53.193Z,22.70
2022-08-01T01:23:53.191Z,22.72
2022-08-01T01:24:53.191Z,22.73
2022-08-01T01:25:53.163Z,22.72
2022-08-01T01:26:53.152Z,22.72
2022-08-01T01:27:53.144Z,22.72
2022-08-01T01:28:53.133Z,22.72
2022-08-01T01:29:59.278Z,22.72
2022-08-01T01:30:54.106Z,22.72
2022-08-01T01:31:53.099Z,22.72
2022-08-01T01:32:53.085Z,22.72
2022-08-01T01:33:53.076Z,22.73
2022-08-01T01:34:53.085Z,22.73
2022-08-01T01:35:53.054Z,22.73
2022-08-01T01:36:53.043Z,22.73
2022-08-01T01:37:53.033Z,22.73
2022-08-01T01:38:53.021Z,22.72
2022-08-01T01:39:54.289Z,22.73
2022-08-01T01:40:53.000Z,22.73
2022-08-01T01:41:52.992Z,22.73
2022-08-01T01:42:52.977Z,22.72
2022-08-01T01:43:52.972Z,22.73
2022-08-01T01:44:52.973Z,22.73
2022-08-01T01:45:53.033Z,22.72
2022-08-01T01:46:52.934Z,22.72
2022-08-01T01:47:52.923Z,22.73
2022-08-01T01:48:53.005Z,22.73
2022-08-01T01:49:52.920Z,22.72
2022-08-01T01:50:52.907Z,22.73
2022-08-01T01:52:02.227Z,22.72
2022-08-01T01:52:53.867Z,22.72
2022-08-01T01:53:52.857Z,22.72
2022-08-01T01:54:52.847Z,22.72
2022-08-01T01:55:52.854Z,22.72
2022-08-01T01:56:52.825Z,22.73
2022-08-01T01:57:52.818Z,22.72
2022-08-01T01:58:52.810Z,22.72
2022-08-01T01:59:52.794Z,22.72
2022-08-01T02:00:52.796Z,22.72
2022-08-01T02:02:05.265Z,22.72
2022-08-01T02:02:53.833Z,22.73
2022-08-01T02:03:52.747Z,22.73
2022-08-01T02:04:52.736Z,22.72
2022-08-01T02:05:52.728Z,22.72
2022-08-01T02:06:52.736Z,22.73
2022-08-01T02:07:52.719Z,22.73
2022-08-01T02:08:53.692Z,22.72
2022-08-01T02:09:52.685Z,22.73
2022-08-01T02:10:52.672Z,22.72
2022-08-01T02:12:07.399Z,22.72
2022-08-01T02:12:53.665Z,22.72
2022-08-01T02:13:52.638Z,22.72
2022-08-01T02:14:52.627Z,22.72
2022-08-01T02:15:59.326Z,22.72
2022-08-01T02:16:53.606Z,22.73
2022-08-01T02:17:52.612Z,22.72
2022-08-01T02:18:52.583Z,22.73
2022-08-01T02:19:52.576Z,22.72
2022-08-01T02:20:53.086Z,22.72
2022-08-01T02:21:52.553Z,22.72
2022-08-01T02:22:52.555Z,22.72
2022-08-01T02:23:52.530Z,22.72
2022-08-01T02:24:52.518Z,22.73
2022-08-01T02:26:09.881Z,22.72
2022-08-01T02:26:53.494Z,22.72
2022-08-01T02:27:52.504Z,22.72
2022-08-01T02:28:52.475Z,22.72
2022-08-01T02:29:52.467Z,22.70
2022-08-01T02:30:52.457Z,22.72
2022-08-01T02:31:52.445Z,22.72
2022-08-01T02:32:52.455Z,22.72
2022-08-01T02:33:52.421Z,22.72
2022-08-01T02:34:52.411Z,22.72
2022-08-01T02:36:29.069Z,22.72
2022-08-01T02:36:53.386Z,22.72
2022-08-01T02:37:52.396Z,22.72
2022-08-01T02:38:52.366Z,22.72
2022-08-01T02:39:52.359Z,22.72
2022-08-01T02:40:52.349Z,22.72
2022-08-01T02:41:52.336Z,22.72
2022-08-01T02:42:52.338Z,22.72
2022-08-01T02:43:53.320Z,22.72
2022-08-01T02:44:52.303Z,22.72
2022-08-01T02:45:52.291Z,22.70
2022-08-01T02:46:52.279Z,22.72
2022-08-01T02:47:52.286Z,22.72
2022-08-01T02:48:52.298Z,22.72
2022-08-01T02:49:53.179Z,22.72
2022-08-01T02:50:52.235Z,22.72
2022-08-01T02:51:52.226Z,22.70
2022-08-01T02:52:52.236Z,22.72
2022-08-01T02:53:52.206Z,22.72
2022-08-01T02:54:52.193Z,22.72
2022-08-01T02:55:52.180Z,22.72
2022-08-01T02:56:52.174Z,22.72
2022-08-01T02:57:56.700Z,22.72
2022-08-01T02:58:53.301Z,22.70
2022-08-01T02:59:52.139Z,22.72
2022-08-01T03:00:52.125Z,22.72
2022-08-01T03:01:52.198Z,22.70
2022-08-01T03:02:52.119Z,22.70
2022-08-01T03:03:52.107Z,22.70
2022-08-01T03:04:56.621Z,22.72
2022-08-01T03:05:53.070Z,22.72
2022-08-01T03:06:52.060Z,22.70
2022-08-01T03:07:52.048Z,22.70
2022-08-01T03:08:52.053Z,22.70
2022-08-01T03:09:52.026Z,22.72
2022-08-01T03:10:52.015Z,22.70
2022-08-01T03:11:52.008Z,22.70
2022-08-01T03:12:51.993Z,22.70
2022-08-01T03:13:52.000Z,22.72
2022-08-01T03:14:51.971Z,22.70
2022-08-01T03:15:51.960Z,22.70
2022-08-01T03:16:51.951Z,22.72
2022-08-01T03:17:51.941Z,22.72
2022-08-01T03:18:51.944Z,22.72
2022-08-01T03:19:51.922Z,22.70
2022-08-01T03:20:51.905Z,22.70
2022-08-01T03:21:51.895Z,22.70
2022-08-01T03:22:51.884Z,22.72
2022-08-01T03:23:55.056Z,22.72
2022-08-01T03:24:51.863Z,22.70
2022-08-01T03:25:51.851Z,22.72
2022-08-01T03:26:51.840Z,22.73
2022-08-01T03:27:51.833Z,22.70
2022-08-01T03:28:51.833Z,22.72
2022-08-01T03:29:51.809Z,22.72
2022-08-01T03:30:51.796Z,22.72
2022-08-01T03:31:51.786Z,22.70
2022-08-01T03:32:51.777Z,22.72
2022-08-01T03:33:51.780Z,22.72
2022-08-01T03:34:51.757Z,22.72
2022-08-01T03:35:51.744Z,22.72
2022-08-01T03:36:51.735Z,22.73
2022-08-01T03:38:14.906Z,22.70
2022-08-01T03:38:52.740Z,22.70
2022-08-01T03:39:51.699Z,22.72
2022-08-01T03:40:51.692Z,22.72
2022-08-01T03:41:56.332Z,22.70
2022-08-01T03:42:52.665Z,22.70
2022-08-01T03:43:51.655Z,22.72
2022-08-01T03:44:51.661Z,22.72
2022-08-01T03:45:51.633Z,22.70
2022-08-01T03:46:51.622Z,22.70
2022-08-01T03:47:52.010Z,22.70
2022-08-01T03:48:51.669Z,22.72
2022-08-01T03:49:51.608Z,22.70
2022-08-01T03:50:51.578Z,22.70
2022-08-01T03:51:51.567Z,22.72
2022-08-01T03:52:51.562Z,22.70
2022-08-01T03:53:51.545Z,22.72
2022-08-01T03:54:51.555Z,22.72
2022-08-01T03:55:51.525Z,22.70
2022-08-01T03:56:51.514Z,22.69
2022-08-01T03:57:51.502Z,22.70
2022-08-01T03:58:51.493Z,22.72
2022-08-01T03:59:51.498Z,22.70
2022-08-01T04:00:51.469Z,22.69
2022-08-01T04:01:51.536Z,22.70
2022-08-01T04:02:51.450Z,22.70
2022-08-01T04:03:51.436Z,22.70
2022-08-01T04:04:51.443Z,22.69
2022-08-01T04:05:51.415Z,22.70
2022-08-01T04:06:51.406Z,22.70
2022-08-01T04:07:51.400Z,22.70
2022-08-01T04:08:51.384Z,22.72
2022-08-01T04:09:51.391Z,22.72
2022-08-01T04:10:51.361Z,22.70
2022-08-01T04:11:51.351Z,22.70
2022-08-01T04:12:51.341Z,22.70
2022-08-01T04:13:51.328Z,22.70
2022-08-01T04:14:51.338Z,22.72
2022-08-01T04:15:51.307Z,22.70
2022-08-01T04:16:51.295Z,22.72
2022-08-01T04:17:51.286Z,22.72
2022-08-01T04:18:51.275Z,22.70
2022-08-01T04:19:51.291Z,22.72
2022-08-01T04:20:51.251Z,22.70
2022-08-01T04:21:51.241Z,22.72
2022-08-01T04:22:51.232Z,22.70
2022-08-01T04:23:51.676Z,22.70
2022-08-01T04:24:56.410Z,22.72
2022-08-01T04:25:52.214Z,22.70
2022-08-01T04:26:51.190Z,22.70
2022-08-01T04:27:52.270Z,22.70
2022-08-01T04:28:51.167Z,22.70
2022-08-01T04:29:51.153Z,22.70
2022-08-01T04:30:51.164Z,22.70
2022-08-01T04:31:51.136Z,22.70
2022-08-01T04:32:51.123Z,22.70
2022-08-01T04:33:51.111Z,22.70
2022-08-01T04:34:51.099Z,22.70
2022-08-01T04:36:02.709Z,22.70
2022-08-01T04:36:52.079Z,22.70
2022-08-01T04:37:51.066Z,22.70
2022-08-01T04:38:51.064Z,22.72
2022-08-01T04:39:51.410Z,22.70
2022-08-01T04:40:51.053Z,22.72
2022-08-01T04:41:51.023Z,22.72
2022-08-01T04:42:51.015Z,22.70
2022-08-01T04:43:51.001Z,22.72
2022-08-01T04:44:50.992Z,22.70
2022-08-01T04:45:51.000Z,22.72
2022-08-01T04:46:50.968Z,22.69
2022-08-01T04:47:50.959Z,22.70
2022-08-01T04:48:51.009Z,22.70
2022-08-01T04:49:50.984Z,22.72
2022-08-01T04:50:50.950Z,22.70
2022-08-01T04:51:50.914Z,22.70
2022-08-01T04:52:50.913Z,22.72
2022-08-01T04:53:50.891Z,22.70
2022-08-01T04:54:50.880Z,22.70
2022-08-01T04:55:50.895Z,22.72
2022-08-01T04:56:51.598Z,22.70
2022-08-01T04:57:50.848Z,22.72
2022-08-01T04:58:50.839Z,22.70
2022-08-01T04:59:50.826Z,22.70
2022-08-01T05:00:50.925Z,22.70
2022-08-01T05:01:50.864Z,22.70
2022-08-01T05:02:50.798Z,22.70
2022-08-01T05:03:50.785Z,22.70
2022-08-01T05:04:50.774Z,22.70
2022-08-01T05:05:50.762Z,22.69
2022-08-01T05:06:50.768Z,22.70
2022-08-01T05:07:50.740Z,22.70
2022-08-01T05:08:50.729Z,22.70
2022-08-01T05:09:50.720Z,22.72
2022-08-01T05:10:50.709Z,22.70
2022-08-01T05:11:50.711Z,22.72
2022-08-01T05:12:50.685Z,22.70
2022-08-01T05:13:50.677Z,22.69
2022-08-01T05:14:50.666Z,22.70
2022-08-01T05:15:50.654Z,22.72
2022-08-01T05:16:50.671Z,22.70
2022-08-01T05:17:50.633Z,22.72
2022-08-01T05:18:50.620Z,22.72
2022-08-01T05:19:50.617Z,22.70
2022-08-01T05:20:50.599Z,22.70
2022-08-01T05:21:50.587Z,22.70
2022-08-01T05:22:50.595Z,22.70
2022-08-01T05:23:50.568Z,22.70
2022-08-01T05:24:50.555Z,22.70
2022-08-01T05:25:56.795Z,22.70
2022-08-01T05:26:51.533Z,22.72
2022-08-01T05:27:50.831Z,22.72
2022-08-01T05:28:50.510Z,22.70
2022-08-01T05:29:50.503Z,22.70
2022-08-01T05:30:50.490Z,22.72
2022-08-01T05:31:50.480Z,22.72
2022-08-01T05:32:50.488Z,22.72
2022-08-01T05:33:50.458Z,22.70
2022-08-01T05:34:50.447Z,22.72
2022-08-01T05:35:50.435Z,22.73
2022-08-01T05:36:52.980Z,22.73
2022-08-01T05:37:51.427Z,22.72
2022-08-01T05:38:50.403Z,22.72
2022-08-01T05:39:50.391Z,22.72
2022-08-01T05:40:50.381Z,22.72
2022-08-01T05:41:50.369Z,22.72
2022-08-01T05:42:50.375Z,22.73
2022-08-01T05:43:50.348Z,22.73
2022-08-01T05:44:50.338Z,22.72
2022-08-01T05:45:50.329Z,22.72
2022-08-01T05:46:50.314Z,22.72
2022-08-01T05:47:50.323Z,22.70
2022-08-01T05:48:50.390Z,22.70
2022-08-01T05:49:50.286Z,22.72
2022-08-01T05:50:50.275Z,22.72
2022-08-01T05:51:50.264Z,22.70
2022-08-01T05:52:50.276Z,22.72
2022-08-01T05:53:50.242Z,22.72
2022-08-01T05:54:50.228Z,22.72
2022-08-01T05:55:50.217Z,22.72
2022-08-01T05:56:50.206Z,22.72
2022-08-01T05:57:50.199Z,22.72
2022-08-01T05:58:50.204Z,22.72
2022-08-01T05:59:50.174Z,22.72
2022-08-01T06:00:50.163Z,22.72
2022-08-01T06:01:50.230Z,22.73
2022-08-01T06:02:50.163Z,22.73
2022-08-01T06:03:50.153Z,22.75
2022-08-01T06:04:50.139Z,22.72
2022-08-01T06:05:50.111Z,22.73
2022-08-01T06:06:50.099Z,22.72
2022-08-01T06:07:50.089Z,22.73
2022-08-01T06:08:50.092Z,22.72
2022-08-01T06:09:50.068Z,22.75
2022-08-01T06:10:50.054Z,22.73
2022-08-01T06:11:50.044Z,22.72
2022-08-01T06:12:50.036Z,22.72
2022-08-01T06:13:50.039Z,22.73
2022-08-01T06:14:50.026Z,22.73
2022-08-01T06:15:50.003Z,22.75
2022-08-01T06:16:49.997Z,22.73
2022-08-01T06:17:49.995Z,22.73
2022-08-01T06:18:51.931Z,22.73
2022-08-01T06:19:50.973Z,22.75
2022-08-01T06:20:49.945Z,22.72
2022-08-01T06:21:49.939Z,22.73
2022-08-01T06:22:52.513Z,22.73
2022-08-01T06:23:49.915Z,22.73
2022-08-01T06:24:49.920Z,22.73
2022-08-01T06:25:49.910Z,22.73
2022-08-01T06:26:49.879Z,22.73
2022-08-01T06:27:49.871Z,22.75
2022-08-01T06:28:49.860Z,22.75
2022-08-01T06:29:51.211Z,22.73
2022-08-01T06:30:49.854Z,22.73
2022-08-01T06:31:49.840Z,22.73
2022-08-01T06:32:49.816Z,22.75
2022-08-01T06:33:49.804Z,22.75
2022-08-01T06:34:49.792Z,22.75
2022-08-01T06:35:49.786Z,22.75
2022-08-01T06:36:49.803Z,22.73
2022-08-01T06:37:49.795Z,22.75
2022-08-01T06:38:49.749Z,22.75
2022-08-01T06:39:49.740Z,22.75
2022-08-01T06:40:49.731Z,22.73
2022-08-01T06:41:49.717Z,22.76
2022-08-01T06:42:49.706Z,22.75
2022-08-01T06:43:49.727Z,22.75
2022-08-01T06:44:49.683Z,22.75
2022-08-01T06:45:49.700Z,22.75
2022-08-01T06:46:49.662Z,22.75
2022-08-01T06:47:50.755Z,22.73
2022-08-01T06:48:49.677Z,22.75
2022-08-01T06:49:49.633Z,22.75
2022-08-01T06:50:49.646Z,22.75
2022-08-01T06:51:49.607Z,22.78
2022-08-01T06:52:49.598Z,22.76
2022-08-01T06:53:49.586Z,22.76
2022-08-01T06:54:49.577Z,22.76
2022-08-01T06:55:49.596Z,22.78
2022-08-01T06:56:49.552Z,22.76
2022-08-01T06:57:49.545Z,22.76
2022-08-01T06:58:49.531Z,22.76
2022-08-01T06:59:54.114Z,22.75
2022-08-01T07:00:54.716Z,22.78
2022-08-01T07:01:50.500Z,22.78
2022-08-01T07:02:49.487Z,22.76
2022-08-01T07:03:53.554Z,22.78
2022-08-01T07:04:50.465Z,22.76
2022-08-01T07:05:49.486Z,22.76
2022-08-01T07:06:49.444Z,22.78
2022-08-01T07:07:49.465Z,22.76
2022-08-01T07:08:49.432Z,22.78
2022-08-01T07:09:49.490Z,22.78
2022-08-01T07:10:49.401Z,22.76
2022-08-01T07:11:49.394Z,22.78
2022-08-01T07:12:49.407Z,22.78
2022-08-01T07:13:49.372Z,22.78
2022-08-01T07:14:49.358Z,22.76
2022-08-01T07:15:49.376Z,22.78
2022-08-01T07:16:49.337Z,22.78
2022-08-01T07:17:49.326Z,22.78
2022-08-01T07:18:49.314Z,22.78
2022-08-01T07:19:49.310Z,22.78
2022-08-01T07:20:51.833Z,22.78
2022-08-01T07:21:50.251Z,22.78
2022-08-01T07:22:49.299Z,22.78
2022-08-01T07:23:49.262Z,22.76
2022-08-01T07:24:49.248Z,22.80
2022-08-01T07:25:50.381Z,22.78
2022-08-01T07:26:53.281Z,22.78
2022-08-01T07:27:50.249Z,22.80
2022-08-01T07:28:49.205Z,22.80
2022-08-01T07:29:49.197Z,22.78
2022-08-01T07:30:49.183Z,22.78
2022-08-01T07:31:49.174Z,22.78
2022-08-01T07:32:49.162Z,22.80
2022-08-01T07:33:49.543Z,22.80
2022-08-01T07:34:49.140Z,22.78
2022-08-01T07:35:49.131Z,22.78
2022-08-01T07:36:49.117Z,22.80
2022-08-01T07:37:49.537Z,22.80
2022-08-01T07:38:49.125Z,22.80
2022-08-01T07:39:49.119Z,22.78
2022-08-01T07:40:49.075Z,22.80
2022-08-01T07:42:13.371Z,22.81
2022-08-01T07:42:50.052Z,22.80
2022-08-01T07:43:56.705Z,22.80
2022-08-01T07:44:50.058Z,22.80
2022-08-01T07:45:49.051Z,22.81
2022-08-01T07:46:49.010Z,22.81
2022-08-01T07:47:49.000Z,22.80
2022-08-01T07:48:49.064Z,22.81
2022-08-01T07:49:48.978Z,22.80
2022-08-01T07:50:48.995Z,22.81
2022-08-01T07:52:13.414Z,22.81
2022-08-01T07:52:49.973Z,22.81
2022-08-01T07:53:48.936Z,22.81
2022-08-01T07:54:52.096Z,22.80
2022-08-01T07:55:48.917Z,22.80
2022-08-01T07:56:48.900Z,22.81
2022-08-01T07:57:48.921Z,22.83
2022-08-01T07:58:48.878Z,22.83
2022-08-01T07:59:48.891Z,22.83
2022-08-01T08:00:48.860Z,22.81
2022-08-01T08:01:48.891Z,22.78
2022-08-01T08:02:48.836Z,22.81
2022-08-01T08:03:48.826Z,22.81
2022-08-01T08:04:49.434Z,22.83
2022-08-01T08:05:58.678Z,22.83
2022-08-01T08:06:49.791Z,22.83
2022-08-01T08:07:48.783Z,22.83
2022-08-01T08:08:48.771Z,22.83
2022-08-01T08:09:51.200Z,22.83
2022-08-01T08:10:48.765Z,22.81
2022-08-01T08:11:48.766Z,22.83
2022-08-01T08:12:48.726Z,22.81
2022-08-01T08:13:48.715Z,22.83
2022-08-01T08:14:48.702Z,22.84
2022-08-01T08:15:48.766Z,22.84
2022-08-01T08:16:48.698Z,22.84
2022-08-01T08:17:54.962Z,22.84
2022-08-01T08:18:49.661Z,22.84
2022-08-01T08:19:48.653Z,22.84
2022-08-01T08:20:50.181Z,22.85
2022-08-01T08:21:48.631Z,22.85
2022-08-01T08:22:48.632Z,22.85
2022-08-01T08:23:48.607Z,22.85
2022-08-01T08:24:48.595Z,22.85
2022-08-01T08:25:48.587Z,22.85
2022-08-01T08:26:48.575Z,22.85
2022-08-01T08:27:48.582Z,22.85
2022-08-01T08:28:48.553Z,22.85
2022-08-01T08:29:48.546Z,22.85
2022-08-01T08:30:48.532Z,22.85
2022-08-01T08:31:52.268Z,22.85
2022-08-01T08:32:48.526Z,22.85
2022-08-01T08:33:48.500Z,22.87
2022-08-01T08:34:48.486Z,22.84
2022-08-01T08:35:54.129Z,22.85
2022-08-01T08:36:49.717Z,22.87
2022-08-01T08:37:49.195Z,22.85
2022-08-01T08:38:48.443Z,22.87
2022-08-01T08:39:48.460Z,22.87
2022-08-01T08:40:48.425Z,22.87
2022-08-01T08:41:49.304Z,22.87
2022-08-01T08:42:48.425Z,22.87
2022-08-01T08:43:48.423Z,22.88
2022-08-01T08:44:48.389Z,22.87
2022-08-01T08:45:59.267Z,22.88
2022-08-01T08:46:49.354Z,22.88
2022-08-01T08:47:48.349Z,22.88
2022-08-01T08:48:48.408Z,22.90
2022-08-01T08:49:49.459Z,22.88
2022-08-01T08:50:48.315Z,22.88
2022-08-01T08:51:48.307Z,22.88
2022-08-01T08:52:48.290Z,22.90
2022-08-01T08:53:48.300Z,22.90
2022-08-01T08:54:48.291Z,22.90
2022-08-01T08:55:56.253Z,22.90
2022-08-01T08:56:49.245Z,22.90
2022-08-01T08:57:48.237Z,22.90
2022-08-01T08:58:48.226Z,22.90
2022-08-01T08:59:48.237Z,22.91
2022-08-01T09:07:06.983Z,22.91
2022-08-01T09:08:06.859Z,22.91
2022-08-01T09:09:06.850Z,22.90
2022-08-01T09:10:06.843Z,22.90
2022-08-01T09:11:06.826Z,22.90
2022-08-01T09:12:07.039Z,22.90
2022-08-01T09:13:06.831Z,22.90
2022-08-01T09:14:06.797Z,22.91
2022-08-01T09:15:06.784Z,22.90
2022-08-01T09:16:06.773Z,22.90
2022-08-01T09:17:06.762Z,22.90
2022-08-01T09:18:06.754Z,22.90
2022-08-01T09:19:06.762Z,22.90
2022-08-01T09:20:07.730Z,22.90
2022-08-01T09:21:06.719Z,22.91
2022-08-01T09:22:07.011Z,22.90
2022-08-01T09:23:06.721Z,22.91
2022-08-01T09:24:06.692Z,22.91
2022-08-01T09:25:06.676Z,22.91
2022-08-01T09:26:06.664Z,22.91
2022-08-01T09:27:06.656Z,22.91
2022-08-01T09:28:06.668Z,22.91
2022-08-01T09:29:06.675Z,22.91
2022-08-01T09:30:06.663Z,22.91
2022-08-01T09:31:06.609Z,22.91
2022-08-01T09:32:06.933Z,22.90
2022-08-01T09:33:18.088Z,22.91
2022-08-01T09:34:07.577Z,22.93
2022-08-01T09:35:06.568Z,22.93
2022-08-01T09:36:07.578Z,22.93
2022-08-01T09:37:08.066Z,22.94
2022-08-01T09:38:06.534Z,22.94
2022-08-01T09:39:06.522Z,22.94
2022-08-01T09:40:06.514Z,22.94
2022-08-01T09:41:06.501Z,22.94
2022-08-01T09:42:06.512Z,22.94
2022-08-01T09:43:06.482Z,22.94
2022-08-01T09:44:06.471Z,22.96
2022-08-01T09:45:07.326Z,22.96
2022-08-01T09:46:06.476Z,22.96
2022-08-01T09:47:08.114Z,22.98
2022-08-01T09:48:06.427Z,22.94
2022-08-01T09:49:07.345Z,22.98
2022-08-01T09:50:10.843Z,22.98
2022-08-01T09:51:09.931Z,22.98
2022-08-01T09:52:06.405Z,22.98
2022-08-01T09:53:06.378Z,22.98
2022-08-01T09:54:06.365Z,22.98
2022-08-01T09:55:06.352Z,22.96
2022-08-01T09:56:06.363Z,22.98
2022-08-01T09:57:06.717Z,22.98
2022-08-01T09:58:06.317Z,22.99
2022-08-01T09:59:06.306Z,22.99
2022-08-01T10:00:06.787Z,23.00
2022-08-01T10:01:06.305Z,23.00
2022-08-01T10:02:06.277Z,23.00
2022-08-01T10:03:10.268Z,23.00
2022-08-01T10:04:06.256Z,23.02
2022-08-01T10:05:08.174Z,23.00
2022-08-01T10:06:06.262Z,23.03
2022-08-01T10:07:06.496Z,23.03
2022-08-01T10:08:08.018Z,23.03
2022-08-01T10:09:06.197Z,23.05
2022-08-01T10:10:06.187Z,23.03
2022-08-01T10:11:06.178Z,23.05
2022-08-01T10:12:06.186Z,23.05
2022-08-01T10:13:06.153Z,23.06
2022-08-01T10:14:06.146Z,23.05
2022-08-01T10:15:06.154Z,23.06
2022-08-01T10:16:06.124Z,23.06
2022-08-01T10:17:06.396Z,23.08
2022-08-01T10:18:06.098Z,23.06
2022-08-01T10:19:07.088Z,23.08
2022-08-01T10:20:06.080Z,23.06
2022-08-01T10:21:08.850Z,23.08
2022-08-01T10:22:06.078Z,23.09
2022-08-01T10:23:06.949Z,23.08
2022-08-01T10:24:06.038Z,23.09
2022-08-01T10:25:06.023Z,23.09
2022-08-01T10:26:06.014Z,23.09
2022-08-01T10:27:08.341Z,23.09
2022-08-01T10:28:07.018Z,23.08
2022-08-01T10:29:05.978Z,23.09
2022-08-01T10:30:19.605Z,23.10
2022-08-01T10:31:12.342Z,23.09
2022-08-01T10:32:06.975Z,23.09
2022-08-01T10:33:06.266Z,23.08
2022-08-01T10:34:05.926Z,23.08
2022-08-01T10:35:06.648Z,23.08
2022-08-01T10:36:08.515Z,23.09
2022-08-01T10:37:06.131Z,23.08
2022-08-01T10:38:06.079Z,23.06
2022-08-01T10:39:05.870Z,23.08
2022-08-01T10:40:28.809Z,23.06
2022-08-01T10:41:09.070Z,23.08
2022-08-01T10:42:09.248Z,23.06
2022-08-01T10:43:06.890Z,23.06
2022-08-01T10:44:05.821Z,23.06
2022-08-01T10:45:05.816Z,23.06
2022-08-01T10:46:05.802Z,23.06
2022-08-01T10:47:10.117Z,23.05
2022-08-01T10:48:05.807Z,23.06
2022-08-01T10:49:05.839Z,23.06
2022-08-01T10:50:05.764Z,23.06
2022-08-01T10:51:17.566Z,23.05
2022-08-01T10:52:06.737Z,23.06
2022-08-01T10:53:10.778Z,23.06
2022-08-01T10:54:06.733Z,23.05
2022-08-01T10:55:05.720Z,23.05
2022-08-01T10:56:05.687Z,23.05
2022-08-01T10:57:05.974Z,23.06
2022-08-01T10:58:05.667Z,23.06
2022-08-01T10:59:06.352Z,23.06
2022-08-01T11:00:05.648Z,23.06
2022-08-01T11:01:06.231Z,23.06
2022-08-01T11:02:05.667Z,23.08
2022-08-01T11:03:05.610Z,23.08
2022-08-01T11:04:05.599Z,23.09
2022-08-01T11:05:05.588Z,23.06
2022-08-01T11:06:05.576Z,23.09
2022-08-01T11:07:06.179Z,23.08
2022-08-01T11:08:05.556Z,23.09
2022-08-01T11:09:05.952Z,23.09
2022-08-01T11:10:05.554Z,23.10
2022-08-01T11:11:06.523Z,23.08
2022-08-01T11:12:06.358Z,23.09
2022-08-01T11:13:05.501Z,23.09
2022-08-01T11:14:05.512Z,23.10
2022-08-01T11:15:05.504Z,23.10
2022-08-01T11:16:05.844Z,23.10
2022-08-01T11:17:06.821Z,23.10
2022-08-01T11:31:37.695Z,23.05
2022-08-01T11:32:52.602Z,23.05
2022-08-01T11:33:33.679Z,23.06
2022-08-01T11:34:32.670Z,23.05
2022-08-01T11:35:32.657Z,23.05
2022-08-01T11:36:57.577Z,23.03
2022-08-01T11:37:33.740Z,23.03
2022-08-01T11:38:32.627Z,23.03
2022-08-01T11:39:38.244Z,23.02
2022-08-01T11:40:33.601Z,23.03
2022-08-01T11:41:37.186Z,23.02
2022-08-01T11:42:33.591Z,23.03
2022-08-01T11:43:32.602Z,23.02
2022-08-01T11:44:32.581Z,23.02
2022-08-01T11:45:32.548Z,23.00
2022-08-01T11:46:32.561Z,23.02
2022-08-01T11:47:32.612Z,23.00
2022-08-01T11:48:32.515Z,23.00
2022-08-01T11:49:32.561Z,23.02
2022-08-01T11:50:32.494Z,23.02
2022-08-01T11:51:32.482Z,23.00
2022-08-01T11:52:32.502Z,23.00
2022-08-01T11:53:32.463Z,23.02
2022-08-01T11:54:35.372Z,23.00
2022-08-01T11:55:32.520Z,23.02
2022-08-01T11:56:32.428Z,23.00
2022-08-01T11:57:34.308Z,23.00
2022-08-01T11:58:32.434Z,23.02
2022-08-01T11:59:34.068Z,23.00
2022-08-01T12:00:33.386Z,23.02
2022-08-01T12:01:32.380Z,23.02
2022-08-01T12:02:32.420Z,23.00
2022-08-01T12:03:33.396Z,23.02
2022-08-01T12:04:32.341Z,23.02
2022-08-01T12:05:32.331Z,23.00
2022-08-01T12:06:32.319Z,23.00
2022-08-01T12:07:32.426Z,23.00
2022-08-01T12:08:32.302Z,23.00
2022-08-01T12:09:32.355Z,23.00
2022-08-01T12:10:32.296Z,23.00
2022-08-01T12:11:32.515Z,23.02
2022-08-01T12:12:33.252Z,23.00
2022-08-01T12:13:32.245Z,23.00
2022-08-01T12:14:32.231Z,22.99
2022-08-01T12:15:32.244Z,23.03
2022-08-01T12:16:32.291Z,23.00
2022-08-01T12:17:32.262Z,23.00
2022-08-01T12:18:32.187Z,23.00
2022-08-01T12:19:32.181Z,23.00
2022-08-01T12:20:32.462Z,23.00
2022-08-01T12:21:32.316Z,23.00
2022-08-01T12:22:32.144Z,23.00
2022-08-01T12:23:32.135Z,23.00
2022-08-01T12:24:32.121Z,23.00
2022-08-01T12:25:32.156Z,22.99
2022-08-01T12:26:32.435Z,22.99
2022-08-01T12:27:32.116Z,23.00
2022-08-01T12:28:32.098Z,23.02
2022-08-01T12:29:32.067Z,23.00
2022-08-01T12:30:32.174Z,23.00
2022-08-01T12:31:32.073Z,23.00
2022-08-01T12:32:35.572Z,23.00
2022-08-01T12:33:32.046Z,23.00
2022-08-01T12:34:32.025Z,23.00
2022-08-01T12:35:32.001Z,22.99
2022-08-01T12:36:31.991Z,22.99
2022-08-01T12:37:32.063Z,23.00
2022-08-01T12:38:31.988Z,23.00
2022-08-01T12:39:31.957Z,23.02
2022-08-01T12:40:31.946Z,23.00
2022-08-01T12:41:31.936Z,23.00
2022-08-01T12:42:31.922Z,23.00
2022-08-01T12:43:31.947Z,23.00
2022-08-01T12:44:31.902Z,23.00
2022-08-01T12:45:31.896Z,23.02
2022-08-01T12:46:31.880Z,23.02
2022-08-01T12:47:31.870Z,23.02
2022-08-01T12:48:31.885Z,23.00
2022-08-01T12:49:31.956Z,23.02
2022-08-01T12:50:31.844Z,23.00
2022-08-01T12:51:31.829Z,23.00
2022-08-01T12:52:31.821Z,23.00
2022-08-01T12:53:41.102Z,23.00
2022-08-01T12:54:32.798Z,23.00
2022-08-01T12:55:34.637Z,23.02
2022-08-01T12:56:31.774Z,23.00
2022-08-01T12:57:31.762Z,23.00
2022-08-01T12:58:31.856Z,22.99
2022-08-01T12:59:31.739Z,23.00
2022-08-01T13:00:31.728Z,23.00
2022-08-01T13:01:31.793Z,22.99
2022-08-01T13:02:31.706Z,23.00
2022-08-01T13:03:31.721Z,22.99
2022-08-01T13:04:31.693Z,23.00
2022-08-01T13:05:31.687Z,23.00
2022-08-01T13:06:31.672Z,23.00
2022-08-01T13:07:37.504Z,23.00
2022-08-01T13:08:32.673Z,23.00
2022-08-01T13:09:31.672Z,23.02
2022-08-01T13:10:31.617Z,23.00
2022-08-01T13:11:31.611Z,23.02
2022-08-01T13:12:31.600Z,23.00